Time;durP1;ratioP1;P1;durP2;ratioP2;P2;SDS_P1;SDS_P2;PMS_P1;PMS_P2;Temp;Humidity;BMP_temperature;BMP_pressure;BME280_temperature;BME280_humidity;BME280_pressure;Samples;Min_cycle;Max_cycle;Signal;HPM_P1;HPM_P2
2021/10/19 00:02:08;;;;;;;10.35;7.03;;;;;;;10.46;60.31;101064.50;4419600;32;34757;-48
2021/10/19 00:04:36;;;;;;;11.80;6.53;;;;;;;10.16;61.01;101071.66;4419317;32;33671;-47
2021/10/19 00:07:03;;;;;;;9.95;6.68;;;;;;;10.08;61.30;101073.19;4419661;32;34734;-47
2021/10/19 00:09:31;;;;;;;11.80;7.25;;;;;;;9.92;61.70;101069.38;4419502;32;34924;-48
2021/10/19 00:11:58;;;;;;;10.38;6.32;;;;;;;10.06;61.63;101073.16;4419364;32;34882;-47
2021/10/19 00:14:26;;;;;;;9.88;5.65;;;;;;;10.18;61.13;101067.37;4419489;32;35122;-48
2021/10/19 00:16:53;;;;;;;8.38;5.65;;;;;;;10.38;60.51;101073.00;4419675;32;34120;-48
2021/10/19 00:19:21;;;;;;;8.20;5.75;;;;;;;10.23;60.89;101072.66;4421606;32;35335;-47
2021/10/19 00:21:48;;;;;;;8.18;5.72;;;;;;;10.17;60.92;101070.84;4421667;32;34639;-47
2021/10/19 00:24:16;;;;;;;9.00;5.75;;;;;;;10.06;61.42;101072.28;4422068;32;33445;-48
2021/10/19 00:26:43;;;;;;;8.80;5.28;;;;;;;10.09;61.31;101069.75;4421788;32;34604;-48
2021/10/19 00:29:11;;;;;;;8.50;5.53;;;;;;;10.10;60.77;101074.97;4421549;32;35907;-47
2021/10/19 00:31:38;;;;;;;10.82;6.15;;;;;;;9.96;61.20;101076.38;4421737;32;34628;-48
2021/10/19 00:34:06;;;;;;;9.75;5.50;;;;;;;9.93;61.47;101073.75;4421458;32;33549;-47
2021/10/19 00:36:33;;;;;;;9.32;5.78;;;;;;;10.07;61.37;101074.94;4421356;32;33719;-48
2021/10/19 00:39:01;;;;;;;9.38;6.05;;;;;;;10.11;60.59;101081.97;4421522;32;34808;-47
2021/10/19 00:41:29;;;;;;;9.80;5.72;;;;;;;10.27;59.64;101077.09;4421661;32;34282;-48
2021/10/19 00:43:56;;;;;;;11.12;5.75;;;;;;;10.22;59.74;101081.31;4422005;32;33636;-47
2021/10/19 00:46:24;;;;;;;6.18;5.25;;;;;;;10.12;60.02;101080.25;4395138;32;34064;-47
2021/10/19 00:48:52;;;;;;;7.00;4.93;;;;;;;10.08;59.99;101076.66;4421276;32;35119;-47
2021/10/19 00:51:20;;;;;;;8.45;5.62;;;;;;;10.02;59.66;101080.84;4421673;32;34177;-47
2021/10/19 00:53:47;;;;;;;8.60;5.68;;;;;;;9.76;60.53;101075.06;4421520;32;34946;-48
2021/10/19 00:56:15;;;;;;;7.68;6.12;;;;;;;9.91;59.95;101072.81;4395527;32;34740;-47
2021/10/19 00:58:43;;;;;;;7.18;5.32;;;;;;;9.89;59.92;101069.28;4407732;32;35046;-47
2021/10/19 01:01:11;;;;;;;8.45;4.87;;;;;;;9.83;60.27;101069.19;4421667;32;35174;-47
2021/10/19 01:03:39;;;;;;;10.30;5.82;;;;;;;9.87;59.93;101073.59;4421549;32;33843;-48
2021/10/19 01:06:08;;;;;;;9.07;5.72;;;;;;;9.87;59.93;101073.59;4421513;32;35054;-48
2021/10/19 01:08:37;;;;;;;7.68;5.10;;;;;;;9.73;60.05;101077.59;4408208;32;35016;-47
2021/10/19 01:11:05;;;;;;;8.23;5.35;;;;;;;9.67;60.34;101079.19;4407550;32;34736;-47
2021/10/19 01:13:34;;;;;;;8.48;5.57;;;;;;;9.75;60.10;101073.31;4407676;32;34152;-48
2021/10/19 01:16:06;;;;;;;10.27;5.22;;;;;;;9.81;59.74;101086.44;4421393;32;34000;-47
2021/10/19 01:18:35;;;;;;;6.82;5.40;;;;;;;9.60;60.25;101085.94;4421573;32;35886;-46
2021/10/19 01:21:03;;;;;;;8.00;5.18;;;;;;;9.56;60.23;101089.28;4421353;32;34250;-47
2021/10/19 01:23:32;;;;;;;7.45;4.90;;;;;;;9.49;60.45;101082.19;4421444;32;33629;-47
2021/10/19 01:26:03;;;;;;;8.38;5.55;;;;;;;9.61;60.18;101090.28;4421569;32;34597;-47
2021/10/19 01:28:31;;;;;;;7.93;5.07;;;;;;;9.53;60.28;101097.03;4420966;32;35512;-47
2021/10/19 01:31:00;;;;;;;9.07;5.53;;;;;;;9.44;60.48;101097.66;4420855;32;34344;-46
2021/10/19 01:33:29;;;;;;;8.95;5.55;;;;;;;9.50;60.32;101094.34;4421313;32;33774;-46
2021/10/19 01:35:56;;;;;;;7.97;5.37;;;;;;;9.39;60.66;101085.41;4421666;32;34583;-47
2021/10/19 01:38:26;;;;;;;8.60;4.95;;;;;;;9.43;60.79;101082.94;4421324;32;35770;-47
2021/10/19 01:40:55;;;;;;;6.75;4.95;;;;;;;9.50;60.46;101081.37;4421461;32;34499;-47
2021/10/19 01:43:24;;;;;;;6.72;5.03;;;;;;;9.47;60.60;101086.47;4421310;32;33655;-46
2021/10/19 01:45:58;;;;;;;8.05;5.65;;;;;;;9.49;60.37;101085.69;4421168;32;34003;-47
2021/10/19 01:48:26;;;;;;;6.82;5.40;;;;;;;9.47;60.29;101089.06;4421239;32;35799;-47
2021/10/19 01:50:55;;;;;;;10.65;6.75;;;;;;;9.35;60.60;101091.37;4407556;32;34118;-47
2021/10/19 01:53:23;;;;;;;10.77;7.22;;;;;;;9.35;60.71;101088.78;4421123;32;33598;-47
2021/10/19 01:55:51;;;;;;;10.80;7.68;;;;;;;9.08;61.66;101081.16;4421371;32;34779;-46
2021/10/19 01:58:23;;;;;;;13.98;8.30;;;;;;;9.02;61.89;101080.13;4421456;32;34803;-47
2021/10/19 02:00:54;;;;;;;11.75;7.37;;;;;;;9.16;61.75;101083.94;4421218;32;34428;-48
2021/10/19 02:03:23;;;;;;;9.88;7.15;;;;;;;9.18;61.85;101084.87;4421210;32;34294;-47
2021/10/19 02:05:51;;;;;;;11.52;7.37;;;;;;;9.42;61.35;101081.19;4421233;32;34732;-47
2021/10/19 02:08:19;;;;;;;12.90;7.07;;;;;;;9.31;62.01;101079.16;4421054;32;35599;-47
2021/10/19 02:10:46;;;;;;;9.38;6.22;;;;;;;9.44;62.11;101084.69;4420980;32;34270;-47
2021/10/19 02:13:14;;;;;;;11.15;6.85;;;;;;;9.19;62.71;101084.03;4421032;32;33660;-47
2021/10/19 02:15:42;;;;;;;9.63;6.55;;;;;;;9.20;62.87;101084.06;4407047;32;33613;-47
2021/10/19 02:18:10;;;;;;;9.55;6.37;;;;;;;9.46;62.47;101079.56;4420978;32;34868;-47
2021/10/19 02:20:39;;;;;;;8.30;6.32;;;;;;;9.63;61.95;101080.81;4421248;32;34812;-47
2021/10/19 02:23:07;;;;;;;8.95;5.70;;;;;;;9.73;61.72;101071.50;4421119;32;33550;-48
2021/10/19 02:25:35;;;;;;;8.70;5.80;;;;;;;9.58;61.95;101087.59;4421271;32;33847;-49
2021/10/19 02:28:03;;;;;;;9.57;6.12;;;;;;;9.69;61.54;101074.88;4421375;32;34727;-48
2021/10/19 02:30:30;;;;;;;9.77;6.00;;;;;;;9.67;61.26;101072.25;4421020;32;34296;-48
2021/10/19 02:32:58;;;;;;;8.43;5.78;;;;;;;9.82;60.57;101071.72;4421287;32;34417;-48
2021/10/19 02:35:26;;;;;;;8.73;5.97;;;;;;;9.64;61.04;101087.78;4420934;32;33854;-48
2021/10/19 02:37:53;;;;;;;10.73;5.97;;;;;;;9.73;60.70;101079.31;4394707;32;35823;-48
2021/10/19 02:40:21;;;;;;;9.63;5.80;;;;;;;9.63;60.87;101086.00;4420720;32;34583;-48
2021/10/19 02:42:49;;;;;;;11.50;6.45;;;;;;;9.69;60.64;101077.50;4420967;32;33647;-48
2021/10/19 02:45:16;;;;;;;9.23;5.82;;;;;;;9.53;60.81;101079.72;4420571;32;33698;-48
2021/10/19 02:47:44;;;;;;;10.05;6.45;;;;;;;9.42;61.33;101081.19;4420670;32;35515;-48
2021/10/19 02:50:12;;;;;;;12.98;10.77;;;;;;;9.52;61.06;101077.09;4420847;32;34680;-49
2021/10/19 02:52:40;;;;;;;18.12;12.75;;;;;;;9.46;61.24;101074.34;4420861;32;33889;-48
2021/10/19 02:55:09;;;;;;;14.73;11.30;;;;;;;9.42;61.34;101077.69;4420415;32;34333;-48
2021/10/19 02:57:37;;;;;;;11.93;8.00;;;;;;;9.53;60.95;101081.44;4420918;32;35259;-48
2021/10/19 03:00:06;;;;;;;8.55;6.30;;;;;;;9.46;61.05;101082.16;4420725;32;34341;-50
2021/10/19 03:02:34;;;;;;;10.93;6.70;;;;;;;9.14;61.76;101089.12;4420852;32;35152;-48
2021/10/19 03:05:03;;;;;;;8.98;6.18;;;;;;;9.39;61.33;101088.00;4420548;32;34457;-50
2021/10/19 03:07:30;;;;;;;8.25;5.43;;;;;;;9.46;60.68;101087.34;4420922;32;35011;-48
2021/10/19 03:09:58;;;;;;;7.05;5.50;;;;;;;9.27;61.06;101096.38;4420749;32;34906;-48
2021/10/19 03:12:25;;;;;;;9.75;5.55;;;;;;;9.31;60.79;101097.34;4420758;32;33620;-48
2021/10/19 03:14:53;;;;;;;9.07;5.68;;;;;;;9.22;60.90;101097.09;4406917;32;34352;-48
2021/10/19 03:17:20;;;;;;;8.02;5.57;;;;;;;9.13;61.25;101094.28;4420399;32;36021;-47
2021/10/19 03:19:48;;;;;;;8.90;5.65;;;;;;;9.25;61.01;101098.03;4420396;32;34561;-48
2021/10/19 03:22:15;;;;;;;7.62;5.57;;;;;;;9.27;61.12;101098.97;4406989;32;34279;-48
2021/10/19 03:24:46;;;;;;;10.20;5.82;;;;;;;9.26;60.81;101097.22;4420292;32;34326;-48
2021/10/19 03:27:13;;;;;;;7.90;5.75;;;;;;;9.24;60.81;101105.81;4420441;32;34900;-48
2021/10/19 03:29:41;;;;;;;7.85;5.87;;;;;;;9.20;60.99;101103.97;4420980;32;35486;-48
2021/10/19 03:32:09;;;;;;;9.52;6.35;;;;;;;9.08;61.40;101096.72;4420323;32;33518;-48
2021/10/19 03:34:38;;;;;;;9.45;5.97;;;;;;;9.10;61.23;101107.16;4420494;32;34676;-48
2021/10/19 03:37:05;;;;;;;7.85;6.22;;;;;;;9.08;61.08;101104.50;4420515;32;35291;-48
2021/10/19 03:39:33;;;;;;;8.48;5.57;;;;;;;9.14;60.72;101098.63;4420212;32;34400;-47
2021/10/19 03:42:01;;;;;;;8.00;5.85;;;;;;;9.15;60.93;101100.38;4406569;32;33660;-47
2021/10/19 03:44:28;;;;;;;11.32;6.20;;;;;;;9.16;60.87;101107.31;4406241;32;35118;-47
2021/10/19 03:46:56;;;;;;;11.20;5.62;;;;;;;9.15;60.86;101110.78;4420016;32;35850;-48
2021/10/19 03:49:24;;;;;;;7.57;5.18;;;;;;;8.92;61.58;101097.16;4418176;32;34281;-48
2021/10/19 03:51:51;;;;;;;9.57;6.03;;;;;;;9.01;61.51;101097.41;4420345;32;34369;-48
2021/10/19 03:54:19;;;;;;;9.80;6.15;;;;;;;9.18;61.15;101096.12;4421805;32;33955;-48
2021/10/19 03:56:46;;;;;;;8.25;5.75;;;;;;;9.19;60.92;101097.03;4421751;32;34924;-48
2021/10/19 03:59:14;;;;;;;7.45;5.78;;;;;;;9.30;60.59;101105.94;4421745;32;35569;-51
2021/10/19 04:01:41;;;;;;;11.45;6.28;;;;;;;9.25;60.82;101107.53;4422309;32;33751;-48
2021/10/19 04:04:09;;;;;;;9.13;6.65;;;;;;;9.25;60.72;101103.25;4422108;32;34671;-49
2021/10/19 04:06:37;;;;;;;7.15;5.28;;;;;;;9.12;61.14;101096.00;4421544;32;35708;-47
2021/10/19 04:09:05;;;;;;;7.55;5.65;;;;;;;9.10;60.98;101102.88;4421885;32;34415;-48
2021/10/19 04:11:33;;;;;;;10.10;5.35;;;;;;;9.24;60.47;101095.44;4408100;32;33943;-48
2021/10/19 04:14:00;;;;;;;9.75;5.95;;;;;;;9.20;60.70;101107.44;4421783;32;34551;-48
2021/10/19 04:16:28;;;;;;;9.18;5.45;;;;;;;8.87;61.61;101109.13;4421782;32;34967;-48
2021/10/19 04:18:55;;;;;;;9.43;6.28;;;;;;;9.08;60.88;101111.44;4421849;32;34380;-48
2021/10/19 04:21:23;;;;;;;9.23;5.85;;;;;;;9.00;61.17;101110.34;4421720;32;33430;-48
2021/10/19 04:23:50;;;;;;;9.68;6.00;;;;;;;9.00;61.20;101110.34;4421404;32;33878;-47
2021/10/19 04:26:18;;;;;;;9.88;6.35;;;;;;;9.07;60.99;101110.56;4421551;32;35729;-49
2021/10/19 04:28:46;;;;;;;11.38;7.35;;;;;;;9.24;60.47;101113.59;4421760;32;34915;-48
2021/10/19 04:31:14;;;;;;;9.75;5.72;;;;;;;9.18;60.64;101100.44;4421591;32;34330;-48
2021/10/19 04:33:42;;;;;;;9.35;5.78;;;;;;;9.15;60.55;101110.78;4408291;32;34756;-48
2021/10/19 04:36:09;;;;;;;7.18;5.32;;;;;;;8.98;60.77;101112.03;4421720;32;35709;-47
2021/10/19 04:38:36;;;;;;;9.50;6.47;;;;;;;8.98;60.81;101114.63;4421823;32;35162;-47
2021/10/19 04:41:04;;;;;;;13.73;6.22;;;;;;;9.01;60.74;101115.56;4421744;32;34354;-47
2021/10/19 04:43:32;;;;;;;8.02;5.65;;;;;;;8.84;60.96;101104.72;4421374;32;34630;-48
2021/10/19 04:45:59;;;;;;;10.32;5.43;;;;;;;8.97;60.19;101111.16;4421675;32;35811;-48
2021/10/19 04:48:28;;;;;;;9.10;5.55;;;;;;;8.92;60.36;101109.25;4421570;32;35145;-47
2021/10/19 04:50:58;;;;;;;7.60;5.12;;;;;;;8.98;59.99;101105.13;4421880;32;34005;-48
2021/10/19 04:53:26;;;;;;;6.95;5.35;;;;;;;8.90;60.07;101103.16;4421867;32;34367;-48
2021/10/19 04:55:55;;;;;;;8.05;5.78;;;;;;;8.90;59.89;101108.34;4421505;32;35150;-47
2021/10/19 04:58:24;;;;;;;6.85;5.10;;;;;;;8.72;60.41;101116.50;4421517;32;34336;-48
2021/10/19 05:00:52;;;;;;;8.00;5.70;;;;;;;8.86;59.91;101122.97;4421320;32;34423;-47
2021/10/19 05:03:20;;;;;;;12.80;8.45;;;;;;;8.79;59.89;101121.87;4407906;32;34510;-48
2021/10/19 05:05:49;;;;;;;13.88;8.15;;;;;;;8.81;59.76;101125.44;4421755;32;35018;-48
2021/10/19 05:08:16;;;;;;;12.80;8.27;;;;;;;8.57;60.42;101135.09;4407466;32;34664;-48
2021/10/19 05:10:44;;;;;;;13.18;8.15;;;;;;;8.50;60.78;101135.75;4421372;32;33778;-48
2021/10/19 05:13:12;;;;;;;13.02;7.47;;;;;;;8.54;60.68;101134.12;4421369;32;34918;-48
2021/10/19 05:15:39;;;;;;;10.63;7.75;;;;;;;8.52;60.62;101130.59;4421156;32;35931;-48
2021/10/19 05:18:07;;;;;;;15.73;10.52;;;;;;;8.70;60.15;101131.16;4419846;32;34966;-48
2021/10/19 05:20:34;;;;;;;15.35;10.05;;;;;;;8.71;59.87;101136.38;4419842;32;33987;-48
2021/10/19 05:23:02;;;;;;;13.80;9.70;;;;;;;8.63;60.18;101145.63;4420051;32;34264;-47
2021/10/19 05:25:30;;;;;;;13.48;8.52;;;;;;;8.49;60.80;101146.06;4419464;32;35664;-47
2021/10/19 05:27:58;;;;;;;11.98;7.70;;;;;;;8.54;60.74;101154.88;4419457;32;34474;-48
2021/10/19 05:30:25;;;;;;;13.68;8.63;;;;;;;8.59;60.57;101154.19;4419195;32;33697;-48
2021/10/19 05:32:53;;;;;;;14.68;8.60;;;;;;;8.61;60.60;101152.50;4419893;32;35079;-48
2021/10/19 05:35:20;;;;;;;13.27;9.40;;;;;;;8.59;62.40;101143.81;4419212;32;36073;-48
2021/10/19 05:37:47;;;;;;;16.10;8.98;;;;;;;8.78;60.73;101145.19;4419486;32;35590;-49
2021/10/19 05:40:15;;;;;;;12.37;8.70;;;;;;;8.88;60.61;101151.53;4419726;32;33569;-50
2021/10/19 05:42:45;;;;;;;13.77;8.50;;;;;;;8.70;61.09;101157.94;4405765;32;33770;-48
2021/10/19 05:45:13;;;;;;;15.10;9.10;;;;;;;8.88;60.69;101147.22;4419511;32;35743;-48
2021/10/19 05:47:42;;;;;;;12.15;8.70;;;;;;;8.79;61.04;101158.19;4419386;32;34951;-47
2021/10/19 05:50:11;;;;;;;12.27;8.82;;;;;;;8.83;60.73;101154.88;4420265;32;34756;-48
2021/10/19 05:52:39;;;;;;;13.68;8.13;;;;;;;9.08;61.18;101153.81;4420322;32;33636;-48
2021/10/19 05:55:07;;;;;;;12.25;8.73;;;;;;;9.58;61.57;101165.53;4419954;32;34806;-49
2021/10/19 05:57:35;;;;;;;11.85;7.97;;;;;;;9.92;60.08;101156.84;4420464;32;35083;-51
2021/10/19 06:00:04;;;;;;;11.07;8.05;;;;;;;10.28;58.07;101151.66;4420005;32;34620;-50
2021/10/19 06:02:38;;;;;;;15.70;8.27;;;;;;;10.48;56.84;101151.25;4420134;32;34880;-50
2021/10/19 06:05:06;;;;;;;13.65;9.20;;;;;;;10.58;58.15;101148.00;4419659;32;35197;-50
2021/10/19 06:07:33;;;;;;;13.05;9.32;;;;;;;10.69;56.67;101151.72;4420030;32;35200;-49
2021/10/19 06:10:00;;;;;;;12.65;9.00;;;;;;;10.61;57.14;101152.37;4406611;32;33619;-50
2021/10/19 06:12:28;;;;;;;15.77;8.90;;;;;;;10.65;56.76;101154.22;4419860;32;33810;-50
2021/10/19 06:14:56;;;;;;;12.13;8.27;;;;;;;10.38;57.58;101145.81;4418920;32;35182;-49
2021/10/19 06:17:23;;;;;;;10.98;8.43;;;;;;;10.48;57.65;101151.25;4405768;32;34446;-51
2021/10/19 06:19:51;;;;;;;16.58;9.70;;;;;;;10.63;57.43;101141.16;4420029;32;34250;-50
2021/10/19 06:22:19;;;;;;;14.38;8.82;;;;;;;10.86;57.66;101142.50;4420022;32;34018;-50
2021/10/19 06:24:47;;;;;;;14.75;9.57;;;;;;;11.09;57.28;101140.34;4406738;32;35780;-50
2021/10/19 06:27:14;;;;;;;21.98;12.18;;;;;;;11.33;57.24;101137.31;4419738;32;34695;-49
2021/10/19 06:29:42;;;;;;;22.48;13.43;;;;;;;11.51;55.99;101142.84;4420280;32;33656;-50
2021/10/19 06:32:09;;;;;;;14.98;10.02;;;;;;;11.53;56.43;101136.81;4405212;32;33725;-49
2021/10/19 06:34:37;;;;;;;17.45;11.57;;;;;;;11.38;56.94;101141.78;4419372;32;34850;-49
2021/10/19 06:37:04;;;;;;;17.30;9.30;;;;;;;11.57;56.84;101149.06;4418883;32;34208;-49
2021/10/19 06:39:32;;;;;;;16.65;8.82;;;;;;;11.75;56.35;101142.41;4420991;32;35268;-49
2021/10/19 06:41:59;;;;;;;15.00;8.70;;;;;;;11.71;56.68;101143.22;4420265;32;34468;-50
2021/10/19 06:44:27;;;;;;;14.50;8.48;;;;;;;11.82;56.71;101155.56;4420002;32;35739;-51
2021/10/19 06:47:13;;;;;;;14.77;8.50;;;;;;;11.93;57.74;101159.22;4419895;32;34841;-50
2021/10/19 06:49:40;;;;;;;13.95;8.02;;;;;;;12.17;56.67;101158.72;4419811;32;33989;-49
2021/10/19 06:52:07;;;;;;;15.43;8.35;;;;;;;12.36;56.22;101163.34;4418788;32;34659;-51
2021/10/19 06:54:35;;;;;;;14.45;8.25;;;;;;;12.47;55.65;101159.16;4418754;32;35873;-52
2021/10/19 06:57:03;;;;;;;15.10;9.15;;;;;;;12.38;56.15;101151.22;4418457;32;34396;-52
2021/10/19 06:59:30;;;;;;;20.40;13.05;;;;;;;12.54;55.67;101166.22;4418855;32;34429;-51
2021/10/19 07:01:58;;;;;;;28.17;12.90;;;;;;;12.75;55.15;101170.81;4418809;32;34007;-49
2021/10/19 07:04:26;;;;;;;18.42;12.00;;;;;;;12.62;55.66;101175.00;4418881;32;35341;-50
2021/10/19 07:06:53;;;;;;;15.43;10.48;;;;;;;12.67;55.82;101167.25;4419029;32;35500;-50
2021/10/19 07:09:21;;;;;;;15.48;10.23;;;;;;;12.66;56.17;101166.38;4404755;32;34936;-51
2021/10/19 07:11:48;;;;;;;15.02;9.60;;;;;;;13.00;55.54;101167.66;4418645;32;34295;-51
2021/10/19 07:14:16;;;;;;;17.00;10.00;;;;;;;12.95;56.20;101168.47;4418608;32;34714;-50
2021/10/19 07:16:43;;;;;;;15.73;9.63;;;;;;;12.95;56.36;101168.47;4418507;32;35173;-50
2021/10/19 07:19:11;;;;;;;15.60;10.02;;;;;;;12.89;56.83;101170.16;4418738;32;33911;-50
2021/10/19 07:21:38;;;;;;;16.23;11.48;;;;;;;13.19;56.09;101179.22;4418360;32;33755;-53
2021/10/19 07:24:06;;;;;;;17.52;11.18;;;;;;;13.41;55.58;101183.81;4418337;32;34732;-50
2021/10/19 07:26:35;;;;;;;18.05;11.93;;;;;;;13.70;54.93;101190.19;4417995;32;34472;-50
2021/10/19 07:29:02;;;;;;;20.10;11.52;;;;;;;13.78;55.00;101191.16;4417953;32;33434;-52
2021/10/19 07:31:30;;;;;;;18.60;13.15;;;;;;;13.98;54.57;101191.28;4418478;32;34615;-51
2021/10/19 07:33:58;;;;;;;17.62;11.77;;;;;;;14.16;54.04;101191.44;4418260;32;35158;-50
2021/10/19 07:36:26;;;;;;;17.12;10.57;;;;;;;14.31;53.50;101190.72;4417867;32;35038;-50
2021/10/19 07:38:53;;;;;;;14.98;11.10;;;;;;;14.18;53.81;101193.22;4418591;32;35005;-50
2021/10/19 07:41:21;;;;;;;18.33;10.40;;;;;;;14.41;53.77;101202.97;4404850;32;34741;-50
2021/10/19 07:43:49;;;;;;;18.37;11.60;;;;;;;14.54;53.05;101208.31;4418157;32;35562;-50
2021/10/19 07:46:16;;;;;;;20.98;11.80;;;;;;;14.62;53.17;101208.38;4418224;32;35486;-52
2021/10/19 07:48:44;;;;;;;15.07;10.63;;;;;;;14.78;52.92;101208.47;4418005;32;33892;-52
2021/10/19 07:51:13;;;;;;;18.08;10.55;;;;;;;14.86;52.78;101208.47;4418220;32;34033;-52
2021/10/19 07:53:40;;;;;;;14.85;10.45;;;;;;;14.95;52.83;101207.66;4418039;32;34949;-50
2021/10/19 07:56:08;;;;;;;19.37;11.75;;;;;;;15.06;52.65;101201.59;4418227;32;34964;-51
2021/10/19 07:58:36;;;;;;;16.87;12.02;;;;;;;15.14;51.98;101202.47;4418242;32;33473;-50
2021/10/19 08:01:04;;;;;;;18.77;13.23;;;;;;;15.30;51.76;101206.03;4418086;32;33645;-50
2021/10/19 08:03:32;;;;;;;17.35;13.05;;;;;;;15.29;51.92;101207.78;4417986;32;34692;-50
2021/10/19 08:06:00;;;;;;;17.75;12.70;;;;;;;15.14;52.87;101199.84;4418036;32;34611;-50
2021/10/19 08:08:28;;;;;;;21.05;12.82;;;;;;;15.20;52.98;101199.00;4418221;32;34841;-49
2021/10/19 08:10:56;;;;;;;17.95;11.90;;;;;;;15.16;53.78;101199.87;4417625;32;34525;-52
2021/10/19 08:13:23;;;;;;;21.67;13.93;;;;;;;15.35;53.30;101199.94;4417354;32;35761;-50
2021/10/19 08:15:55;;;;;;;18.23;13.93;;;;;;;15.55;52.42;101206.13;4417533;32;34862;-52
2021/10/19 08:18:23;;;;;;;20.85;14.43;;;;;;;15.57;52.66;101196.50;4417304;32;34479;-49
2021/10/19 08:20:50;;;;;;;17.42;13.23;;;;;;;15.68;53.05;101198.28;4417347;32;34588;-49
2021/10/19 08:23:17;;;;;;;15.45;10.93;;;;;;;15.74;52.88;101193.00;4417212;32;35843;-50
2021/10/19 08:25:45;;;;;;;18.67;12.70;;;;;;;15.89;50.78;101200.91;4417098;32;35148;-49
2021/10/19 08:28:23;;;;;;;16.62;10.75;;;;;;;15.94;51.26;101197.41;4417164;32;33782;-50
2021/10/19 08:30:52;;;;;;;14.70;9.60;;;;;;;16.05;50.67;101189.53;4417039;32;33976;-51
2021/10/19 08:33:20;;;;;;;14.43;9.88;;;;;;;16.29;50.03;101184.25;4417028;32;35111;-51
2021/10/19 08:35:47;;;;;;;14.87;9.57;;;;;;;16.27;50.12;101175.50;4417271;32;35235;-50
2021/10/19 08:38:16;;;;;;;16.00;9.95;;;;;;;16.54;49.22;101170.25;4416987;32;33634;-51
2021/10/19 08:40:43;;;;;;;16.73;9.57;;;;;;;16.66;49.00;101167.56;4419362;32;34837;-53
2021/10/19 08:43:11;;;;;;;14.02;10.20;;;;;;;16.81;47.77;101170.13;4419022;32;35674;-51
2021/10/19 08:45:39;;;;;;;15.90;9.82;;;;;;;16.88;47.60;101163.97;4419247;32;34418;-53
2021/10/19 08:48:08;;;;;;;13.40;8.55;;;;;;;16.93;47.90;101159.59;4419356;32;33836;-51
2021/10/19 08:50:35;;;;;;;16.23;8.95;;;;;;;17.08;47.41;101157.75;4419624;32;33827;-50
2021/10/19 08:53:03;;;;;;;13.43;8.95;;;;;;;16.96;47.45;101155.19;4419980;32;35648;-51
2021/10/19 08:55:31;;;;;;;14.70;8.85;;;;;;;16.97;47.98;101155.19;4405848;32;34766;-50
2021/10/19 08:58:02;;;;;;;16.30;8.70;;;;;;;17.02;47.01;101160.44;4419336;32;34636;-49
2021/10/19 09:00:30;;;;;;;11.80;7.95;;;;;;;16.98;47.02;101156.94;4419400;32;34961;-49
2021/10/19 09:02:58;;;;;;;13.10;8.15;;;;;;;16.52;48.45;101164.09;4419271;32;34670;-49
2021/10/19 09:05:28;;;;;;;10.85;8.32;;;;;;;16.97;46.76;101156.94;4405567;32;35448;-51
2021/10/19 09:08:05;;;;;;;14.30;8.40;;;;;;;16.49;48.02;101145.72;4420495;32;36238;-49
2021/10/19 09:10:35;;;;;;;14.90;9.27;;;;;;;16.81;47.14;101149.13;4421322;32;34836;-52
2021/10/19 09:13:05;;;;;;;17.58;9.50;;;;;;;16.68;47.99;101143.94;4421218;32;35844;-50
2021/10/19 09:15:35;;;;;;;13.57;9.30;;;;;;;16.21;49.16;101147.50;4421690;32;34493;-50
2021/10/19 09:18:09;;;;;;;16.20;9.63;;;;;;;16.66;48.20;101143.91;4421272;32;33881;-50
2021/10/19 09:20:42;;;;;;;15.07;9.43;;;;;;;16.79;48.01;101143.00;4420654;32;33813;-51
2021/10/19 09:23:13;;;;;;;15.80;8.73;;;;;;;16.80;47.74;101147.38;4420221;32;35769;-50
2021/10/19 09:25:46;;;;;;;13.50;8.88;;;;;;;16.88;47.65;101147.31;4407609;32;34630;-49
2021/10/19 09:28:34;;;;;;;14.93;9.20;;;;;;;16.63;47.64;101143.94;4420825;32;33847;-48
2021/10/19 09:31:02;;;;;;;17.05;9.75;;;;;;;17.00;47.32;101141.16;4419220;32;34731;-49
2021/10/19 09:33:29;;;;;;;14.60;10.15;;;;;;;16.98;47.42;101135.03;4419194;32;35047;-52
2021/10/19 09:36:00;;;;;;;16.98;10.15;;;;;;;16.92;47.65;101134.16;4405502;32;35040;-49
2021/10/19 09:38:28;;;;;;;15.23;9.50;;;;;;;16.85;48.00;101127.19;4419370;32;33509;-49
2021/10/19 09:40:57;;;;;;;13.30;9.70;;;;;;;17.14;47.26;101136.72;4419232;32;33930;-49
2021/10/19 09:43:26;;;;;;;16.45;10.02;;;;;;;17.07;46.80;101142.88;4405311;32;35159;-49
2021/10/19 09:45:59;;;;;;;12.80;9.65;;;;;;;16.95;47.25;101132.44;4419260;32;34334;-49
2021/10/19 09:48:31;;;;;;;16.70;10.30;;;;;;;17.00;47.56;101128.03;4419133;32;33744;-51
2021/10/19 09:51:00;;;;;;;14.77;9.15;;;;;;;17.03;47.86;101131.50;4405492;32;34033;-50
2021/10/19 09:53:29;;;;;;;9.98;7.93;;;;;;;17.07;47.72;101140.25;4419950;32;35364;-51
2021/10/19 09:55:57;;;;;;;33.08;8.98;;;;;;;16.92;47.28;101154.34;4419930;32;34644;-49
2021/10/19 09:58:25;;;;;;;16.30;9.13;;;;;;;17.03;46.75;101151.66;4419514;32;33823;-50
2021/10/19 10:00:53;;;;;;;12.52;8.70;;;;;;;17.23;45.77;101153.31;4419918;32;34690;-50
2021/10/19 10:03:22;;;;;;;16.37;9.00;;;;;;;17.38;45.79;101152.31;4419670;32;35111;-51
2021/10/19 10:05:50;;;;;;;29.52;9.48;;;;;;;17.33;45.34;101149.72;4419972;32;34239;-49
2021/10/19 10:08:19;;;;;;;17.05;9.60;;;;;;;17.24;46.31;101159.41;4420294;32;35089;-50
2021/10/19 10:10:54;;;;;;;11.05;8.50;;;;;;;17.50;44.93;101142.59;4420238;32;33766;-49
2021/10/19 10:13:22;;;;;;;16.35;9.55;;;;;;;17.68;44.11;101140.75;4419907;32;36247;-49
2021/10/19 10:15:51;;;;;;;15.70;9.60;;;;;;;17.53;43.69;101149.63;4419446;32;34665;-51
2021/10/19 10:18:30;;;;;;;12.52;9.52;;;;;;;17.63;44.08;101153.06;4419937;32;33446;-49
2021/10/19 10:20:58;;;;;;;12.85;9.00;;;;;;;17.67;44.21;101160.03;4420031;32;33672;-50
2021/10/19 10:23:28;;;;;;;13.40;8.88;;;;;;;17.70;44.44;101150.38;4405530;32;35891;-50
2021/10/19 10:25:57;;;;;;;16.00;9.98;;;;;;;17.70;43.41;101153.00;4419464;32;34379;-53
2021/10/19 10:28:33;;;;;;;17.10;10.25;;;;;;;17.65;42.94;101156.53;4419067;32;34527;-50
2021/10/19 10:31:02;;;;;;;13.62;9.52;;;;;;;17.40;44.07;101156.69;4419173;32;34075;-49
2021/10/19 10:33:35;;;;;;;17.58;9.52;;;;;;;17.13;45.93;101177.88;4418891;32;35204;-48
2021/10/19 10:36:10;;;;;;;13.27;9.15;;;;;;;17.36;44.92;101167.22;4419302;32;34221;-50
2021/10/19 10:38:52;;;;;;;12.40;7.80;;;;;;;17.52;44.81;101166.28;4418883;32;34521;-50
2021/10/19 10:41:20;;;;;;;11.40;7.72;;;;;;;17.47;44.78;101160.16;4418998;32;34241;-49
2021/10/19 10:44:00;;;;;;;9.30;7.43;;;;;;;17.52;43.39;101142.59;4405138;32;35222;-52
2021/10/19 10:46:28;;;;;;;7.70;6.43;;;;;;;17.58;42.74;101139.94;4419396;32;34766;-50
2021/10/19 10:48:58;;;;;;;11.48;6.70;;;;;;;17.57;43.29;101127.66;4418955;32;34297;-51
2021/10/19 10:51:27;;;;;;;8.63;6.50;;;;;;;17.88;41.66;101117.75;4418822;32;33894;-48
2021/10/19 10:53:55;;;;;;;10.43;6.75;;;;;;;17.69;41.70;101117.03;4418991;32;35300;-48
2021/10/19 10:56:22;;;;;;;14.60;7.22;;;;;;;17.87;41.63;101097.59;4418957;32;35822;-49
2021/10/19 10:58:50;;;;;;;13.30;7.45;;;;;;;17.96;41.62;101094.87;4418475;32;33468;-49
2021/10/19 11:01:23;;;;;;;10.23;7.20;;;;;;;17.87;42.59;101087.06;4418472;32;35075;-50
2021/10/19 11:03:53;;;;;;;9.98;7.53;;;;;;;17.76;42.28;101088.94;4418902;32;34684;-49
2021/10/19 11:06:23;;;;;;;10.90;6.87;;;;;;;17.90;41.93;101089.69;4405233;32;34815;-51
2021/10/19 11:08:58;;;;;;;16.33;7.53;;;;;;;18.19;41.11;101096.38;4405246;32;33598;-50
2021/10/19 11:11:30;;;;;;;12.50;7.93;;;;;;;17.97;42.50;101102.75;4418867;32;34777;-49
2021/10/19 11:13:59;;;;;;;10.68;7.95;;;;;;;18.19;41.77;101104.28;4418822;32;37307;-49
2021/10/19 11:16:52;;;;;;;12.85;8.43;;;;;;;18.26;41.55;101100.69;4418957;32;34452;-50
2021/10/19 11:19:29;;;;;;;14.73;8.80;;;;;;;18.24;41.91;101086.66;4418995;32;33645;-49
2021/10/19 11:21:59;;;;;;;12.57;8.18;;;;;;;18.13;42.50;101088.56;4405012;32;34560;-51
2021/10/19 11:24:28;;;;;;;11.15;8.15;;;;;;;18.50;40.88;101082.88;4418703;32;37182;-50
2021/10/19 11:26:57;;;;;;;15.60;8.38;;;;;;;18.51;40.86;101082.88;4404998;32;34399;-49
2021/10/19 11:29:25;;;;;;;12.15;8.07;;;;;;;18.45;41.48;101074.13;4418783;32;34071;-51